Time;durP1;ratioP1;P1;durP2;ratioP2;P2;SDS_P1;SDS_P2;PMS_P1;PMS_P2;Temp;Humidity;BMP_temperature;BMP_pressure;BME280_temperature;BME280_humidity;BME280_pressure;Samples;Min_cycle;Max_cycle;Signal;HPM_P1;HPM_P2
2021/09/26 00:02:16;;;;;;;;;;;23.30;58.20;;;;;;5077943;28;20400;-59
2021/09/26 00:04:43;;;;;;;;;;;23.30;58.20;;;;;;5076687;28;19947;-57
2021/09/26 00:07:10;;;;;;;;;;;23.30;58.30;;;;;;5076865;28;19951;-60
2021/09/26 00:09:37;;;;;;;;;;;23.30;58.20;;;;;;5077827;28;19999;-58
2021/09/26 00:12:04;;;;;;;;;;;23.30;58.20;;;;;;5076674;28;19924;-59
2021/09/26 00:14:31;;;;;;;;;;;23.30;58.20;;;;;;5079407;28;20060;-59
2021/09/26 00:16:58;;;;;;;;;;;23.30;58.30;;;;;;5080099;28;19964;-59
2021/09/26 00:19:26;;;;;;;;;;;23.30;58.20;;;;;;5079187;28;19947;-59
2021/09/26 00:21:53;;;;;;;;;;;23.30;58.30;;;;;;5074221;28;20000;-59
2021/09/26 00:24:20;;;;;;;;;;;23.30;58.30;;;;;;5075104;28;19925;-60
2021/09/26 00:26:47;;;;;;;;;;;23.30;58.30;;;;;;5075831;28;20436;-59
2021/09/26 00:29:14;;;;;;;;;;;23.30;58.30;;;;;;5074477;28;19960;-60
2021/09/26 00:31:41;;;;;;;;;;;23.30;58.30;;;;;;5074640;28;19970;-59
2021/09/26 00:34:08;;;;;;;;;;;23.30;58.30;;;;;;5075520;28;19936;-59
2021/09/26 00:36:35;;;;;;;;;;;23.30;58.30;;;;;;5084823;28;19970;-59
2021/09/26 00:39:03;;;;;;;;;;;23.30;58.30;;;;;;5084147;28;20006;-59
2021/09/26 00:41:29;;;;;;;;;;;23.30;58.30;;;;;;5079445;28;20334;-59
2021/09/26 00:43:56;;;;;;;;;;;23.30;58.30;;;;;;5091011;28;19932;-59
2021/09/26 00:46:23;;;;;;;;;;;23.20;58.20;;;;;;5090167;28;20401;-58
2021/09/26 00:48:51;;;;;;;;;;;23.30;58.30;;;;;;5074633;28;20003;-59
2021/09/26 00:51:18;;;;;;;;;;;23.20;58.20;;;;;;5089597;28;19925;-59
2021/09/26 00:53:45;;;;;;;;;;;23.20;58.20;;;;;;5074416;28;19950;-59
2021/09/26 00:56:12;;;;;;;;;;;23.30;58.30;;;;;;5073720;28;20363;-59
2021/09/26 00:58:40;;;;;;;;;;;23.20;58.20;;;;;;5061303;28;19925;-59
2021/09/26 01:01:07;;;;;;;;;;;23.20;58.20;;;;;;5072133;28;20391;-59
2021/09/26 01:03:34;;;;;;;;;;;23.20;58.20;;;;;;5084068;28;19935;-59
2021/09/26 01:06:11;;;;;;;;;;;23.20;58.20;;;;;;5075900;28;20011;-60
2021/09/26 01:08:41;;;;;;;;;;;23.20;58.20;;;;;;5095914;28;19924;-59
2021/09/26 01:11:08;;;;;;;;;;;23.20;58.20;;;;;;5074938;28;19924;-60
2021/09/26 01:13:35;;;;;;;;;;;23.30;58.30;;;;;;5071362;28;20027;-59
2021/09/26 01:16:05;;;;;;;;;;;23.20;58.20;;;;;;5060056;28;20372;-60
2021/09/26 01:18:35;;;;;;;;;;;23.30;58.30;;;;;;5079817;28;19924;-58
2021/09/26 01:21:04;;;;;;;;;;;23.20;58.20;;;;;;5055348;28;20027;-59
2021/09/26 01:23:49;;;;;;;;;;;23.20;58.20;;;;;;5091610;28;20409;-60
2021/09/26 01:26:22;;;;;;;;;;;23.20;58.20;;;;;;5073809;28;20419;-58
2021/09/26 01:29:14;;;;;;;;;;;23.20;58.20;;;;;;5068425;28;20288;-58
2021/09/26 01:31:45;;;;;;;;;;;23.20;58.20;;;;;;5071544;28;20400;-57
2021/09/26 01:34:19;;;;;;;;;;;23.20;58.20;;;;;;5072498;28;19928;-58
2021/09/26 01:36:56;;;;;;;;;;;23.20;58.20;;;;;;5071131;28;20400;-59
2021/09/26 01:39:26;;;;;;;;;;;23.20;58.20;;;;;;5073081;28;19924;-58
2021/09/26 01:41:59;;;;;;;;;;;23.20;58.20;;;;;;5059472;28;20291;-58
2021/09/26 01:44:44;;;;;;;;;;;23.20;58.20;;;;;;5069618;28;19931;-58
2021/09/26 01:47:13;;;;;;;;;;;23.30;58.30;;;;;;5060710;28;20008;-59
2021/09/26 01:49:48;;;;;;;;;;;23.20;58.10;;;;;;5061142;28;20369;-58
2021/09/26 01:52:18;;;;;;;;;;;23.20;58.20;;;;;;5058857;28;19924;-58
2021/09/26 01:54:46;;;;;;;;;;;23.20;58.20;;;;;;5066800;28;19981;-58
2021/09/26 01:57:20;;;;;;;;;;;23.20;58.10;;;;;;5099970;27;19932;-58
2021/09/26 01:59:52;;;;;;;;;;;23.20;58.10;;;;;;5057782;28;19925;-58
2021/09/26 02:02:19;;;;;;;;;;;23.20;58.10;;;;;;5057899;28;20043;-59
2021/09/26 02:04:51;;;;;;;;;;;23.20;58.10;;;;;;5057338;28;19928;-57
2021/09/26 02:07:19;;;;;;;;;;;23.20;58.10;;;;;;5057660;28;19960;-58
2021/09/26 02:09:47;;;;;;;;;;;23.20;58.10;;;;;;5072630;28;20415;-57
2021/09/26 02:12:14;;;;;;;;;;;23.20;58.10;;;;;;5072740;28;19947;-58
2021/09/26 02:14:42;;;;;;;;;;;23.20;58.10;;;;;;5056103;28;19928;-57
2021/09/26 02:17:09;;;;;;;;;;;23.20;58.20;;;;;;5071718;28;19924;-58
2021/09/26 02:19:37;;;;;;;;;;;23.20;58.10;;;;;;5059800;28;19924;-59
2021/09/26 02:22:05;;;;;;;;;;;23.20;58.10;;;;;;5058256;28;20016;-58
2021/09/26 02:24:33;;;;;;;;;;;23.20;58.10;;;;;;5057322;28;19929;-59
2021/09/26 02:27:00;;;;;;;;;;;23.20;58.20;;;;;;5063840;28;19999;-58
2021/09/26 02:29:27;;;;;;;;;;;23.20;58.10;;;;;;5076786;28;20371;-58
2021/09/26 02:31:54;;;;;;;;;;;23.20;58.10;;;;;;5086370;28;20388;-58
2021/09/26 02:34:21;;;;;;;;;;;23.20;58.10;;;;;;5072514;28;20283;-59
2021/09/26 02:36:48;;;;;;;;;;;23.20;58.10;;;;;;5073913;28;20007;-59
2021/09/26 02:39:16;;;;;;;;;;;23.20;58.20;;;;;;5072497;28;19924;-59
2021/09/26 02:41:47;;;;;;;;;;;23.20;58.10;;;;;;5072388;28;19978;-59
2021/09/26 02:44:30;;;;;;;;;;;23.20;58.10;;;;;;5071658;28;19931;-57
2021/09/26 02:47:01;;;;;;;;;;;23.20;58.20;;;;;;5073471;28;19925;-58
2021/09/26 02:49:28;;;;;;;;;;;23.20;58.20;;;;;;5070878;28;19971;-58
2021/09/26 02:51:55;;;;;;;;;;;23.20;58.10;;;;;;5073278;28;19924;-59
2021/09/26 02:54:22;;;;;;;;;;;23.20;58.10;;;;;;5071737;28;19928;-59
2021/09/26 02:56:50;;;;;;;;;;;23.20;58.10;;;;;;5070647;28;19974;-59
2021/09/26 02:59:19;;;;;;;;;;;23.20;58.10;;;;;;5070702;28;19954;-59
2021/09/26 03:01:50;;;;;;;;;;;23.20;58.10;;;;;;5071407;28;21320;-57
2021/09/26 03:04:17;;;;;;;;;;;23.20;58.10;;;;;;5072024;28;19928;-58
2021/09/26 03:06:44;;;;;;;;;;;23.20;58.10;;;;;;5070644;28;19925;-59
2021/09/26 03:09:11;;;;;;;;;;;23.20;58.10;;;;;;5071655;28;19925;-59
2021/09/26 03:11:38;;;;;;;;;;;23.20;58.10;;;;;;5071580;28;19929;-60
2021/09/26 03:14:05;;;;;;;;;;;23.20;58.20;;;;;;5055496;28;20356;-58
2021/09/26 03:16:32;;;;;;;;;;;23.20;58.10;;;;;;5069985;28;20007;-58
2021/09/26 03:18:59;;;;;;;;;;;23.20;58.10;;;;;;5073125;28;19939;-58
2021/09/26 03:21:29;;;;;;;;;;;23.20;58.10;;;;;;5061442;28;19931;-58
2021/09/26 03:23:56;;;;;;;;;;;23.20;58.10;;;;;;5066625;28;19932;-58
2021/09/26 03:26:23;;;;;;;;;;;23.20;58.10;;;;;;5065254;28;20031;-59
2021/09/26 03:28:50;;;;;;;;;;;23.20;58.10;;;;;;5059985;28;19929;-58
2021/09/26 03:31:18;;;;;;;;;;;23.20;58.10;;;;;;5069166;28;20020;-58
2021/09/26 03:33:45;;;;;;;;;;;23.20;58.80;;;;;;5066896;28;20011;-58
2021/09/26 03:36:12;;;;;;;;;;;23.20;58.10;;;;;;5088831;28;19978;-58
2021/09/26 03:38:39;;;;;;;;;;;23.20;58.10;;;;;;5090682;28;19970;-58
2021/09/26 03:41:05;;;;;;;;;;;23.20;58.10;;;;;;5056717;28;20355;-58
2021/09/26 03:43:32;;;;;;;;;;;23.20;58.10;;;;;;5070017;28;19928;-58
2021/09/26 03:45:59;;;;;;;;;;;23.20;58.10;;;;;;5060708;28;20361;-59
2021/09/26 03:48:26;;;;;;;;;;;23.20;58.10;;;;;;5066682;28;20326;-59
2021/09/26 03:50:53;;;;;;;;;;;23.20;58.10;;;;;;5104815;28;20011;-58
2021/09/26 03:53:20;;;;;;;;;;;23.20;58.10;;;;;;5066653;28;20011;-59
2021/09/26 03:55:47;;;;;;;;;;;23.20;58.10;;;;;;5059816;28;19956;-58
2021/09/26 03:58:14;;;;;;;;;;;23.20;58.10;;;;;;5107274;28;19967;-59
2021/09/26 04:00:41;;;;;;;;;;;23.20;58.10;;;;;;5075364;28;19963;-58
2021/09/26 04:03:08;;;;;;;;;;;23.20;58.10;;;;;;5058198;28;19948;-59
2021/09/26 04:05:35;;;;;;;;;;;23.20;58.10;;;;;;5075460;28;20343;-59
2021/09/26 04:08:02;;;;;;;;;;;23.20;58.10;;;;;;5091394;28;19924;-58
2021/09/26 04:10:29;;;;;;;;;;;23.20;58.10;;;;;;5062670;28;20238;-57
2021/09/26 04:12:56;;;;;;;;;;;23.20;58.10;;;;;;5070379;28;20366;-59
2021/09/26 04:15:23;;;;;;;;;;;23.20;58.70;;;;;;5066624;28;20012;-58
2021/09/26 04:17:50;;;;;;;;;;;23.20;58.10;;;;;;5065667;28;20003;-59
2021/09/26 04:20:17;;;;;;;;;;;23.20;58.10;;;;;;5075987;28;20011;-60
2021/09/26 04:22:44;;;;;;;;;;;23.20;58.10;;;;;;5078472;28;19972;-59
2021/09/26 04:25:11;;;;;;;;;;;23.20;58.20;;;;;;5089018;28;20417;-58
2021/09/26 04:27:38;;;;;;;;;;;23.20;58.20;;;;;;5073376;28;20039;-58
2021/09/26 04:30:05;;;;;;;;;;;23.20;58.20;;;;;;5088421;28;19924;-59
2021/09/26 04:32:33;;;;;;;;;;;23.20;58.10;;;;;;5075031;28;19994;-59
2021/09/26 04:35:00;;;;;;;;;;;23.20;58.20;;;;;;5075757;28;19924;-59
2021/09/26 04:37:27;;;;;;;;;;;23.20;58.20;;;;;;5073316;28;20016;-59
2021/09/26 04:39:54;;;;;;;;;;;23.20;58.20;;;;;;5084758;28;19959;-58
2021/09/26 04:42:21;;;;;;;;;;;23.20;58.20;;;;;;5080190;28;19928;-59
2021/09/26 04:44:48;;;;;;;;;;;23.20;58.20;;;;;;5074030;28;20000;-58
2021/09/26 04:47:15;;;;;;;;;;;23.20;58.20;;;;;;5070524;28;20004;-60
2021/09/26 04:49:42;;;;;;;;;;;23.20;58.20;;;;;;5061086;28;19928;-59
2021/09/26 04:52:09;;;;;;;;;;;23.20;58.20;;;;;;5073206;28;19982;-60
2021/09/26 04:54:37;;;;;;;;;;;23.20;58.20;;;;;;5073710;28;19924;-59
2021/09/26 04:57:03;;;;;;;;;;;23.20;58.20;;;;;;5107157;28;20007;-60
2021/09/26 04:59:30;;;;;;;;;;;23.20;58.20;;;;;;5092166;28;19963;-58
2021/09/26 05:01:57;;;;;;;;;;;23.20;58.20;;;;;;5075547;28;20010;-59
2021/09/26 05:04:24;;;;;;;;;;;23.20;58.20;;;;;;5060736;28;20015;-59
2021/09/26 05:06:51;;;;;;;;;;;23.20;58.10;;;;;;5069230;28;19924;-59
2021/09/26 05:09:19;;;;;;;;;;;23.20;58.10;;;;;;5074203;28;19924;-60
2021/09/26 05:11:46;;;;;;;;;;;23.20;58.10;;;;;;5072784;28;20019;-59
2021/09/26 05:14:13;;;;;;;;;;;23.20;58.70;;;;;;5074789;28;19935;-58
2021/09/26 05:16:40;;;;;;;;;;;23.20;58.10;;;;;;5071905;28;20003;-58
2021/09/26 05:19:08;;;;;;;;;;;23.20;58.10;;;;;;5060859;28;19932;-60
2021/09/26 05:21:36;;;;;;;;;;;23.20;58.10;;;;;;5073648;28;19924;-59
2021/09/26 05:24:03;;;;;;;;;;;23.20;58.10;;;;;;5074775;28;19954;-58
2021/09/26 05:26:30;;;;;;;;;;;23.20;58.10;;;;;;5073381;28;19925;-59
2021/09/26 05:28:57;;;;;;;;;;;23.20;58.10;;;;;;5073493;28;20599;-59
2021/09/26 05:31:24;;;;;;;;;;;23.20;58.10;;;;;;5074533;28;19928;-59
2021/09/26 05:33:51;;;;;;;;;;;23.20;58.00;;;;;;5062208;28;19924;-59
2021/09/26 05:36:18;;;;;;;;;;;23.20;58.00;;;;;;5069536;28;19936;-59
2021/09/26 05:38:45;;;;;;;;;;;23.20;57.90;;;;;;5066201;28;19925;-58
2021/09/26 05:41:12;;;;;;;;;;;23.20;57.90;;;;;;5091398;27;19931;-59
2021/09/26 05:43:38;;;;;;;;;;;23.30;58.00;;;;;;5060597;28;19939;-59
2021/09/26 05:46:05;;;;;;;;;;;23.30;58.00;;;;;;5073048;28;19932;-58
2021/09/26 05:48:32;;;;;;;;;;;23.30;58.00;;;;;;5073311;28;20324;-59
2021/09/26 05:50:59;;;;;;;;;;;23.30;57.90;;;;;;5073890;28;19924;-59
2021/09/26 05:53:27;;;;;;;;;;;23.30;57.90;;;;;;5073284;28;19964;-58
2021/09/26 05:55:54;;;;;;;;;;;23.30;57.90;;;;;;5072736;28;19935;-59
2021/09/26 05:58:21;;;;;;;;;;;23.30;57.90;;;;;;5071749;28;19931;-59
2021/09/26 06:00:47;;;;;;;;;;;23.30;57.80;;;;;;5071665;28;19931;-58
2021/09/26 06:03:15;;;;;;;;;;;23.30;57.80;;;;;;5074214;28;19925;-58
2021/09/26 06:05:42;;;;;;;;;;;23.30;57.80;;;;;;5072681;28;20282;-59
2021/09/26 06:08:10;;;;;;;;;;;23.30;57.70;;;;;;5071496;28;19925;-60
2021/09/26 06:10:38;;;;;;;;;;;23.30;57.70;;;;;;5073708;28;19924;-59
2021/09/26 06:13:05;;;;;;;;;;;23.30;57.70;;;;;;5071459;28;20023;-58
2021/09/26 06:15:33;;;;;;;;;;;23.30;57.70;;;;;;5072795;28;19968;-58
2021/09/26 06:18:00;;;;;;;;;;;23.30;57.70;;;;;;5063353;28;19924;-59
2021/09/26 06:20:27;;;;;;;;;;;23.40;57.70;;;;;;5055525;28;19924;-59
2021/09/26 06:22:54;;;;;;;;;;;23.40;57.70;;;;;;5071818;28;19983;-59
2021/09/26 06:25:21;;;;;;;;;;;23.40;57.60;;;;;;5072577;28;19974;-60
2021/09/26 06:27:48;;;;;;;;;;;23.40;57.60;;;;;;5104765;28;20418;-59
2021/09/26 06:30:15;;;;;;;;;;;23.40;57.60;;;;;;5063507;28;19971;-59
2021/09/26 06:32:42;;;;;;;;;;;23.40;57.60;;;;;;5058211;28;20296;-59
2021/09/26 06:35:09;;;;;;;;;;;23.40;57.50;;;;;;5056923;28;19974;-59
2021/09/26 06:37:36;;;;;;;;;;;23.40;57.50;;;;;;5057021;28;20004;-59
2021/09/26 06:40:03;;;;;;;;;;;23.40;57.50;;;;;;5057321;28;19928;-59
2021/09/26 06:42:30;;;;;;;;;;;23.40;57.50;;;;;;5072595;28;20004;-59
2021/09/26 06:44:57;;;;;;;;;;;23.40;57.50;;;;;;5070982;28;19924;-59
2021/09/26 06:47:24;;;;;;;;;;;23.50;57.50;;;;;;5071306;28;20280;-58
2021/09/26 06:49:52;;;;;;;;;;;23.50;57.50;;;;;;5057306;28;20004;-59
2021/09/26 06:52:19;;;;;;;;;;;23.50;57.40;;;;;;5069238;28;19925;-59
2021/09/26 06:54:46;;;;;;;;;;;23.50;57.40;;;;;;5070595;28;19925;-59
2021/09/26 06:57:13;;;;;;;;;;;23.50;57.40;;;;;;5072916;28;19929;-60
2021/09/26 06:59:40;;;;;;;;;;;23.50;57.30;;;;;;5065740;28;19924;-59
2021/09/26 07:02:07;;;;;;;;;;;23.50;57.40;;;;;;5061105;28;20003;-59
2021/09/26 07:04:35;;;;;;;;;;;23.50;57.30;;;;;;5069468;28;19974;-59
2021/09/26 07:07:03;;;;;;;;;;;23.50;57.30;;;;;;5058238;28;20337;-59
2021/09/26 07:09:30;;;;;;;;;;;23.50;57.30;;;;;;5070524;28;19931;-59
2021/09/26 07:11:57;;;;;;;;;;;23.50;57.30;;;;;;5072056;28;19931;-59
2021/09/26 07:14:24;;;;;;;;;;;23.50;57.30;;;;;;5087217;28;19965;-59
2021/09/26 07:16:51;;;;;;;;;;;23.50;57.30;;;;;;5070869;28;19936;-59
2021/09/26 07:19:18;;;;;;;;;;;23.50;57.20;;;;;;5072287;28;20303;-58
2021/09/26 07:21:45;;;;;;;;;;;23.60;57.20;;;;;;5082386;28;19928;-58
2021/09/26 07:24:12;;;;;;;;;;;23.60;57.20;;;;;;5070659;28;19964;-58
2021/09/26 07:26:39;;;;;;;;;;;23.60;57.20;;;;;;5057672;28;19925;-59
2021/09/26 07:29:06;;;;;;;;;;;23.60;57.20;;;;;;5062690;28;19969;-59
2021/09/26 07:31:33;;;;;;;;;;;23.60;57.20;;;;;;5074560;28;20004;-59
2021/09/26 07:34:02;;;;;;;;;;;23.60;57.20;;;;;;5077139;28;19924;-59
2021/09/26 07:36:29;;;;;;;;;;;23.60;57.10;;;;;;5090304;28;19924;-58
2021/09/26 07:38:57;;;;;;;;;;;23.60;57.10;;;;;;5057719;28;19975;-58
2021/09/26 07:41:24;;;;;;;;;;;23.60;57.10;;;;;;5071371;28;19964;-58
2021/09/26 07:43:51;;;;;;;;;;;23.60;57.20;;;;;;5074817;28;19978;-59
2021/09/26 07:46:18;;;;;;;;;;;23.60;57.10;;;;;;5061642;28;19924;-58
2021/09/26 07:48:45;;;;;;;;;;;23.60;57.10;;;;;;5071816;28;19948;-59
2021/09/26 07:51:12;;;;;;;;;;;23.60;57.10;;;;;;5075620;28;20350;-59
2021/09/26 07:53:39;;;;;;;;;;;23.60;57.10;;;;;;5075373;28;20000;-60
2021/09/26 07:56:06;;;;;;;;;;;23.60;57.10;;;;;;5073926;28;20395;-58
2021/09/26 07:58:33;;;;;;;;;;;23.60;57.10;;;;;;5076574;28;19924;-58
2021/09/26 08:01:01;;;;;;;;;;;23.60;57.10;;;;;;5075060;28;19925;-59
2021/09/26 08:03:28;;;;;;;;;;;23.60;57.10;;;;;;5074977;28;19932;-58
2021/09/26 08:05:56;;;;;;;;;;;23.60;57.10;;;;;;5074422;28;19925;-59
2021/09/26 08:08:23;;;;;;;;;;;23.60;57.10;;;;;;5076249;28;20335;-58
2021/09/26 08:10:50;;;;;;;;;;;23.60;57.00;;;;;;5073685;28;19930;-59
2021/09/26 08:13:17;;;;;;;;;;;23.60;57.00;;;;;;5086735;28;19973;-59
2021/09/26 08:15:44;;;;;;;;;;;23.60;57.00;;;;;;5074983;28;19940;-60
2021/09/26 08:18:11;;;;;;;;;;;23.70;57.10;;;;;;5074479;28;19971;-59
2021/09/26 08:20:38;;;;;;;;;;;23.60;57.00;;;;;;5077226;28;20015;-59
2021/09/26 08:23:05;;;;;;;;;;;23.60;56.90;;;;;;5076062;28;19931;-60
2021/09/26 08:25:32;;;;;;;;;;;23.70;57.00;;;;;;5073569;28;19925;-59
2021/09/26 08:27:59;;;;;;;;;;;23.70;56.90;;;;;;5075754;28;19934;-59
2021/09/26 08:30:26;;;;;;;;;;;23.70;56.90;;;;;;5057770;28;19964;-59
2021/09/26 08:32:52;;;;;;;;;;;23.70;56.90;;;;;;5056480;28;20274;-60
2021/09/26 08:35:19;;;;;;;;;;;23.70;56.90;;;;;;5074528;28;19967;-59
2021/09/26 08:37:46;;;;;;;;;;;23.70;56.90;;;;;;5074333;28;20352;-59
2021/09/26 08:40:14;;;;;;;;;;;23.70;56.90;;;;;;5076650;28;19929;-59
2021/09/26 08:42:41;;;;;;;;;;;23.70;56.80;;;;;;5074642;28;20047;-59
2021/09/26 08:45:10;;;;;;;;;;;23.70;56.80;;;;;;5074194;28;19954;-59
2021/09/26 08:47:39;;;;;;;;;;;23.70;56.70;;;;;;5073262;28;19932;-59
2021/09/26 08:50:10;;;;;;;;;;;23.70;56.70;;;;;;5076782;28;19925;-59
2021/09/26 08:52:37;;;;;;;;;;;23.70;56.70;;;;;;5074603;28;19929;-60
2021/09/26 08:55:05;;;;;;;;;;;23.70;56.70;;;;;;5075287;28;19936;-59
2021/09/26 08:57:32;;;;;;;;;;;23.70;56.70;;;;;;5074320;28;19924;-59
2021/09/26 08:59:59;;;;;;;;;;;23.80;56.80;;;;;;5057933;28;19928;-59
2021/09/26 09:02:26;;;;;;;;;;;23.80;56.70;;;;;;5073366;28;19924;-59
2021/09/26 09:04:53;;;;;;;;;;;23.80;56.70;;;;;;5090119;28;19970;-60
2021/09/26 09:07:20;;;;;;;;;;;23.80;56.70;;;;;;5078133;28;19963;-59
2021/09/26 09:09:48;;;;;;;;;;;23.80;56.60;;;;;;5073588;28;19971;-59
2021/09/26 09:12:16;;;;;;;;;;;23.80;56.60;;;;;;5066240;28;19967;-59
2021/09/26 09:14:57;;;;;;;;;;;23.80;56.50;;;;;;5058222;28;20404;-59
2021/09/26 09:17:34;;;;;;;;;;;23.90;56.60;;;;;;5059847;28;20008;-59
2021/09/26 09:20:10;;;;;;;;;;;23.90;56.60;;;;;;5090757;28;20009;-59
2021/09/26 09:22:37;;;;;;;;;;;23.90;56.60;;;;;;5066191;28;19924;-60
2021/09/26 09:25:04;;;;;;;;;;;23.90;56.50;;;;;;5071770;28;19924;-59
2021/09/26 09:27:31;;;;;;;;;;;23.90;56.50;;;;;;5059157;28;19975;-60
2021/09/26 09:29:58;;;;;;;;;;;23.90;56.40;;;;;;5059530;28;20015;-59
2021/09/26 09:32:25;;;;;;;;;;;23.90;56.40;;;;;;5073139;28;20338;-60
2021/09/26 09:34:52;;;;;;;;;;;23.90;56.40;;;;;;5073458;28;19928;-59
2021/09/26 09:37:20;;;;;;;;;;;23.90;56.50;;;;;;5058526;28;19925;-59
2021/09/26 09:40:07;;;;;;;;;;;23.90;56.40;;;;;;5070753;28;19972;-58
2021/09/26 09:42:38;;;;;;;;;;;23.90;56.40;;;;;;5059308;28;20020;-58
2021/09/26 09:45:22;;;;;;;;;;;23.90;56.40;;;;;;5059115;28;20021;-59
2021/09/26 09:48:00;;;;;;;;;;;23.90;56.40;;;;;;5059062;28;20395;-59
2021/09/26 09:50:28;;;;;;;;;;;23.90;56.40;;;;;;5071396;28;19924;-59
2021/09/26 09:52:55;;;;;;;;;;;24.00;56.40;;;;;;5073159;28;19934;-59
2021/09/26 09:55:24;;;;;;;;;;;23.90;56.40;;;;;;5066479;28;19928;-59
2021/09/26 09:57:51;;;;;;;;;;;23.90;56.40;;;;;;5057573;28;19932;-59
2021/09/26 10:00:22;;;;;;;;;;;23.90;56.40;;;;;;5058868;28;19931;-59
2021/09/26 10:02:49;;;;;;;;;;;24.00;56.40;;;;;;5062997;28;20015;-59
2021/09/26 10:05:30;;;;;;;;;;;24.00;56.40;;;;;;5087886;28;19933;-59
2021/09/26 10:07:57;;;;;;;;;;;24.00;56.40;;;;;;5072461;28;19925;-60
2021/09/26 10:10:33;;;;;;;;;;;24.00;56.30;;;;;;5074481;28;19959;-59
2021/09/26 10:13:10;;;;;;;;;;;24.00;56.30;;;;;;5090347;28;19963;-59
2021/09/26 10:15:37;;;;;;;;;;;24.00;56.30;;;;;;5071934;28;20273;-59
2021/09/26 10:18:05;;;;;;;;;;;24.00;56.30;;;;;;5062806;28;19928;-60
2021/09/26 10:20:32;;;;;;;;;;;24.00;56.30;;;;;;5073775;28;19924;-59
2021/09/26 10:23:00;;;;;;;;;;;24.00;56.30;;;;;;5072719;28;20082;-59
2021/09/26 10:25:28;;;;;;;;;;;24.10;56.30;;;;;;5072204;28;19979;-60
2021/09/26 10:27:55;;;;;;;;;;;24.00;56.20;;;;;;5064685;28;19972;-60
2021/09/26 10:30:22;;;;;;;;;;;24.00;56.30;;;;;;5065951;28;19924;-60
2021/09/26 10:32:49;;;;;;;;;;;24.10;56.30;;;;;;5072422;28;19928;-59
2021/09/26 10:35:16;;;;;;;;;;;24.10;56.40;;;;;;5075323;28;20023;-59
2021/09/26 10:37:44;;;;;;;;;;;24.10;56.30;;;;;;5087818;28;20010;-59
2021/09/26 10:40:11;;;;;;;;;;;24.00;56.30;;;;;;5073866;28;19978;-60
2021/09/26 10:42:38;;;;;;;;;;;24.00;56.30;;;;;;5054551;28;19925;-58
2021/09/26 10:45:06;;;;;;;;;;;24.00;56.20;;;;;;5073481;28;20416;-58
2021/09/26 10:47:34;;;;;;;;;;;24.10;56.30;;;;;;5072436;28;20020;-59
2021/09/26 10:50:02;;;;;;;;;;;24.10;56.30;;;;;;5073138;28;19963;-58
2021/09/26 10:52:29;;;;;;;;;;;24.10;56.30;;;;;;5061985;28;20008;-58
2021/09/26 10:55:14;;;;;;;;;;;24.10;56.30;;;;;;5057813;28;20349;-60
2021/09/26 10:57:45;;;;;;;;;;;24.10;56.30;;;;;;5066330;28;19967;-58
2021/09/26 11:00:16;;;;;;;;;;;24.10;56.30;;;;;;5072255;28;20406;-60
2021/09/26 11:02:44;;;;;;;;;;;24.00;56.20;;;;;;5070990;28;19951;-59
2021/09/26 11:05:31;;;;;;;;;;;24.10;56.30;;;;;;5071693;28;20003;-59
2021/09/26 11:07:58;;;;;;;;;;;24.00;56.20;;;;;;5070991;28;19924;-59
2021/09/26 11:10:38;;;;;;;;;;;24.10;56.30;;;;;;5070629;28;19925;-59
2021/09/26 11:13:08;;;;;;;;;;;24.10;56.30;;;;;;5072576;28;19924;-59
2021/09/26 11:15:54;;;;;;;;;;;24.00;56.30;;;;;;5071378;28;20377;-59
2021/09/26 11:18:40;;;;;;;;;;;24.00;56.30;;;;;;5058696;28;19931;-58
2021/09/26 11:21:07;;;;;;;;;;;24.00;56.40;;;;;;5070721;28;19924;-60
2021/09/26 11:23:35;;;;;;;;;;;24.00;56.40;;;;;;5071856;28;19934;-59
2021/09/26 11:26:04;;;;;;;;;;;24.00;56.50;;;;;;5072293;28;19927;-60
2021/09/26 11:28:34;;;;;;;;;;;24.00;56.40;;;;;;5072528;28;19925;-59
2021/09/26 11:31:09;;;;;;;;;;;24.00;56.40;;;;;;5071812;28;20416;-59
2021/09/26 11:33:54;;;;;;;;;;;24.00;56.40;;;;;;5070503;28;20340;-59
2021/09/26 11:36:22;;;;;;;;;;;24.00;56.40;;;;;;5069880;28;20396;-59
2021/09/26 11:38:49;;;;;;;;;;;24.00;56.50;;;;;;5071821;28;19947;-59
2021/09/26 11:41:16;;;;;;;;;;;24.00;56.50;;;;;;5084671;28;20007;-60
2021/09/26 11:43:59;;;;;;;;;;;24.00;56.40;;;;;;5077371;28;20011;-60
2021/09/26 11:46:27;;;;;;;;;;;24.00;56.40;;;;;;5084118;28;20343;-59
2021/09/26 11:49:05;;;;;;;;;;;24.10;56.50;;;;;;5077640;28;19945;-59
2021/09/26 11:51:33;;;;;;;;;;;24.10;56.50;;;;;;5080244;28;19928;-59
2021/09/26 11:54:01;;;;;;;;;;;24.10;56.50;;;;;;5080540;28;20363;-60
2021/09/26 11:56:32;;;;;;;;;;;24.10;56.50;;;;;;5077112;28;19928;-59
2021/09/26 11:59:01;;;;;;;;;;;24.10;56.50;;;;;;5083921;28;20022;-59
2021/09/26 12:01:29;;;;;;;;;;;24.10;56.50;;;;;;5069934;28;19928;-59
2021/09/26 12:04:06;;;;;;;;;;;24.10;56.50;;;;;;5057038;28;20058;-60
2021/09/26 12:06:33;;;;;;;;;;;24.10;56.50;;;;;;5073052;28;19924;-60
2021/09/26 12:09:00;;;;;;;;;;;24.10;56.50;;;;;;5053092;28;20291;-58
2021/09/26 12:11:27;;;;;;;;;;;24.10;56.50;;;;;;5071466;28;19924;-59
2021/09/26 12:13:55;;;;;;;;;;;24.10;56.40;;;;;;5056069;28;19975;-59
2021/09/26 12:16:23;;;;;;;;;;;24.10;56.40;;;;;;5056137;28;19924;-59
2021/09/26 12:18:50;;;;;;;;;;;24.10;56.50;;;;;;5070083;28;19925;-60
2021/09/26 12:21:17;;;;;;;;;;;24.10;56.50;;;;;;5068439;28;19968;-59
2021/09/26 12:23:57;;;;;;;;;;;24.10;56.50;;;;;;5067440;28;20031;-59
2021/09/26 12:26:29;;;;;;;;;;;24.10;56.50;;;;;;5067844;28;19968;-59
2021/09/26 12:29:05;;;;;;;;;;;24.10;56.50;;;;;;5064356;28;19964;-58
2021/09/26 12:31:33;;;;;;;;;;;24.10;56.60;;;;;;5070694;28;19972;-60
2021/09/26 12:34:03;;;;;;;;;;;24.00;56.50;;;;;;5059849;28;20300;-59
2021/09/26 12:36:35;;;;;;;;;;;24.10;56.60;;;;;;5060357;28;19963;-59
2021/09/26 12:39:03;;;;;;;;;;;24.10;56.70;;;;;;5058569;28;19960;-59
2021/09/26 12:41:32;;;;;;;;;;;24.10;56.70;;;;;;5108016;28;19925;-60
2021/09/26 12:44:04;;;;;;;;;;;24.10;56.70;;;;;;5074643;28;20587;-59
2021/09/26 12:46:36;;;;;;;;;;;24.10;56.70;;;;;;5073318;28;19924;-59
2021/09/26 12:49:04;;;;;;;;;;;24.10;56.60;;;;;;5074310;28;20376;-60
2021/09/26 12:51:39;;;;;;;;;;;24.10;56.70;;;;;;5062363;28;19931;-59
2021/09/26 12:54:07;;;;;;;;;;;24.10;56.70;;;;;;5058915;28;19928;-59
2021/09/26 12:56:40;;;;;;;;;;;24.10;56.60;;;;;;5063440;28;20308;-58
2021/09/26 12:59:37;;;;;;;;;;;24.10;56.50;;;;;;5060407;28;19925;-58
2021/09/26 13:02:04;;;;;;;;;;;24.10;56.50;;;;;;5047398;28;20384;-58
2021/09/26 13:04:31;;;;;;;;;;;24.10;56.70;;;;;;5060895;28;19924;-59
2021/09/26 13:06:59;;;;;;;;;;;24.20;56.90;;;;;;5059748;28;20325;-58
2021/09/26 13:09:37;;;;;;;;;;;24.20;56.70;;;;;;5048995;28;19936;-59
2021/09/26 13:12:39;;;;;;;;;;;24.20;56.90;;;;;;5051503;28;19979;-59
2021/09/26 13:15:12;;;;;;;;;;;24.20;56.90;;;;;;5002039;28;19936;-58
2021/09/26 13:17:39;;;;;;;;;;;24.20;57.50;;;;;;4999246;28;20012;-59
2021/09/26 13:20:32;;;;;;;;;;;24.20;57.60;;;;;;5007100;28;19925;-58
2021/09/26 13:23:35;;;;;;;;;;;24.20;57.60;;;;;;4999456;28;20441;-58
2021/09/26 13:26:07;;;;;;;;;;;24.20;57.60;;;;;;4924342;29;19963;-58
2021/09/26 13:28:34;;;;;;;;;;;24.20;57.80;;;;;;4923551;29;20296;-59
2021/09/26 13:31:01;;;;;;;;;;;24.10;58.20;;;;;;4916075;29;20021;-58
2021/09/26 13:33:34;;;;;;;;;;;24.20;58.50;;;;;;4915991;29;20340;-60
2021/09/26 13:36:09;;;;;;;;;;;24.10;58.40;;;;;;4916088;29;19937;-59
2021/09/26 13:38:46;;;;;;;;;;;24.10;58.60;;;;;;4920170;29;19962;-60
2021/09/26 13:41:33;;;;;;;;;;;24.10;58.60;;;;;;4949836;28;19933;-59
2021/09/26 13:44:03;;;;;;;;;;;24.10;58.70;;;;;;4933535;29;19974;-60
2021/09/26 13:46:31;;;;;;;;;;;24.10;58.90;;;;;;4933868;29;19961;-59
2021/09/26 13:48:57;;;;;;;;;;;24.10;59.20;;;;;;4952007;28;19930;-59
2021/09/26 13:51:25;;;;;;;;;;;24.10;59.00;;;;;;4991816;28;19993;-58
2021/09/26 13:53:52;;;;;;;;;;;24.10;58.90;;;;;;5005558;28;19925;-59
2021/09/26 13:56:19;;;;;;;;;;;24.10;59.20;;;;;;4993171;28;19926;-59
2021/09/26 13:58:46;;;;;;;;;;;24.10;59.00;;;;;;4991273;28;19926;-59
2021/09/26 14:01:14;;;;;;;;;;;24.10;59.10;;;;;;5070466;28;20392;-59
2021/09/26 14:03:42;;;;;;;;;;;24.10;59.10;;;;;;5065570;28;20341;-59
2021/09/26 14:06:10;;;;;;;;;;;24.00;59.00;;;;;;5059652;28;19971;-58
2021/09/26 14:08:37;;;;;;;;;;;24.10;59.10;;;;;;5059597;28;20319;-59
2021/09/26 14:11:05;;;;;;;;;;;24.10;59.10;;;;;;5073990;28;19993;-59
2021/09/26 14:13:32;;;;;;;;;;;24.10;59.20;;;;;;5074115;28;19989;-60
2021/09/26 14:16:00;;;;;;;;;;;24.00;59.00;;;;;;5056755;28;19936;-59
2021/09/26 14:18:27;;;;;;;;;;;24.10;59.10;;;;;;5072411;28;20414;-59
2021/09/26 14:20:55;;;;;;;;;;;24.10;59.10;;;;;;5057729;28;20024;-59
2021/09/26 14:23:22;;;;;;;;;;;24.10;59.10;;;;;;5058586;28;19951;-59
2021/09/26 14:25:49;;;;;;;;;;;24.00;59.00;;;;;;5070353;28;20011;-60
2021/09/26 14:28:16;;;;;;;;;;;24.00;59.00;;;;;;5064006;28;19925;-59